Liberty Grace — WADN — position and weather

sailwx.info

Track history (hours):
 
Tides and Currents Weather Stations Pressure Air Temp Water Temp Dewpoint Dewpoint Depression Visibility Wind Speed Wind Dir Waves Ship Positions

Liberty Grace

Owner: Liberty Shipping Group, LLC, LAKE SUCCESS, NY. More information available from US FCC via Universal Licensing System and Coast Guard Vessel Documentation Center.

Last reported at 2018-May-19 12:00 UTC. Time now 2018-May-26 21:51 UTC.
Position N 16°42' E 040°30'.

Type: Cargo ship. MMSI: 338219000.

Wind from 110 at 6 knots

Barometer 1003.9 mb
Air temperature 31.0 ° C
Visibility: greater than 10.8 NM
Dewpoint 25.4 ° C

Date/timePositionNaut miles runAvg speedWind from/ knotsBaromVisibWave heightAir tempDewpointWater temp
2018-May-19 12:00N 16°42' E 040°30'50314.0 110 / 61003.910.8 31.025.4
2018-May-18 00:00N 24°12' E 036°30'17114.2 230 / 121003.6 5.4 25.125.0
2018-May-17 12:00N 26°36' E 034°48'374 7.6 330 / 151005.410.8 26.021.5
2018-May-15 10:34N 32°03' E 031°19'113.2
2018-May-15 10:29N 32°03' E 031°18'613.1
2018-May-15 10:00N 32°05' E 031°11'713.0
2018-May-15 09:30N 32°07' E 031°03'2612.8
2018-May-15 07:29N 32°15' E 030°35'713.0
2018-May-15 06:59N 32°17' E 030°27'9215.4
2018-May-15 01:00N 32°42' E 028°42'14712.2 360 / 121016.310.8 18.014.6
2018-May-14 13:00N 33°24' E 025°54'50013.6 300 / 111016.710.8 22.015.4
2018-May-13 00:12N 35°51' E 016°13'629.7
2018-May-13 00:00N 35°48' E 016°06'1012.8 250 / 81014.4 5.4 18.014.9
2018-May-12 23:13N 35°55' E 015°57'713.8
2018-May-12 22:45N 35°56' E 015°49'413.9
2018-May-12 22:30N 35°56' E 015°45'713.8
2018-May-12 21:58N 35°59' E 015°37'714.3
2018-May-12 21:30N 36°01' E 015°29'1414.5
2018-May-12 20:33N 36°05' E 015°13'314.3
2018-May-12 20:19N 36°06' E 015°08'414.1
2018-May-12 20:00N 36°07' E 015°03'714.0
2018-May-12 19:30N 36°09' E 014°55'714.0
2018-May-12 19:00N 36°11' E 014°47'714.0
2018-May-12 18:30N 36°13' E 014°38'714.1
2018-May-12 18:00N 36°15' E 014°30'714.2
2018-May-12 17:30N 36°17' E 014°21'714.2
2018-May-12 16:59N 36°19' E 014°13'714.6
2018-May-12 16:30N 36°22' E 014°05'714.8
2018-May-12 16:00N 36°24' E 013°56'714.7
2018-May-12 15:30N 36°27' E 013°48'814.5
2018-May-12 14:56N 36°30' E 013°38'614.3
2018-May-12 14:30N 36°32' E 013°31'714.2
2018-May-12 14:00N 36°35' E 013°23'714.1
2018-May-12 13:29N 36°38' E 013°15'2713.9
2018-May-12 11:33N 36°51' E 012°45'114.7
2018-May-12 11:29N 36°51' E 012°44'814.7
2018-May-12 10:57N 36°52' E 012°34'15614.2
2018-May-11 23:59N 37°39' E 009°27'1314.1
2018-May-11 23:03N 37°41' E 009°11'114.2
2018-May-11 23:00N 37°41' E 009°10'4514.5
2018-May-11 19:54N 37°40' E 008°14'44313.9
2018-May-10 12:00N 36°30' W 000°54'17614.6 010 / 191014.7 5.4 22.211.6
2018-May-10 00:00N 36°06' W 004°30'3515.0 290 / 221013.4 5.4 16.913.2
2018-May-09 21:39N 36°00' W 005°13'317.5
2018-May-09 21:30N 35°60' W 005°16'917.4
2018-May-09 21:00N 35°57' W 005°26'  
Track history (hours):
 
Tides and Currents Weather Stations Pressure Air Temp Water Temp Dewpoint Dewpoint Depression Visibility Wind Speed Wind Dir Waves Ship Positions

Liberty Grace

Owner: Liberty Shipping Group, LLC, LAKE SUCCESS, NY. More information available from US FCC via Universal Licensing System and Coast Guard Vessel Documentation Center.

Last reported at 2018-May-19 12:00 UTC. Time now 2018-May-26 21:51 UTC.
Position N 16°42' E 040°30'.

Type: Cargo ship. MMSI: 338219000.

Wind from 110 at 6 knots

Barometer 1003.9 mb
Air temperature 31.0 ° C
Visibility: greater than 10.8 NM
Dewpoint 25.4 ° C

Date/timePositionNaut miles runAvg speedWind from/ knotsBaromVisibWave heightAir tempDewpointWater temp
2018-May-19 12:00N 16°42' E 040°30'50314.0 110 / 61003.910.8 31.025.4
2018-May-18 00:00N 24°12' E 036°30'17114.2 230 / 121003.6 5.4 25.125.0
2018-May-17 12:00N 26°36' E 034°48'374 7.6 330 / 151005.410.8 26.021.5
2018-May-15 10:34N 32°03' E 031°19'113.2
2018-May-15 10:29N 32°03' E 031°18'613.1
2018-May-15 10:00N 32°05' E 031°11'713.0
2018-May-15 09:30N 32°07' E 031°03'2612.8
2018-May-15 07:29N 32°15' E 030°35'713.0
2018-May-15 06:59N 32°17' E 030°27'9215.4
2018-May-15 01:00N 32°42' E 028°42'14712.2 360 / 121016.310.8 18.014.6
2018-May-14 13:00N 33°24' E 025°54'50013.6 300 / 111016.710.8 22.015.4
2018-May-13 00:12N 35°51' E 016°13'629.7
2018-May-13 00:00N 35°48' E 016°06'1012.8 250 / 81014.4 5.4 18.014.9
2018-May-12 23:13N 35°55' E 015°57'713.8
2018-May-12 22:45N 35°56' E 015°49'413.9
2018-May-12 22:30N 35°56' E 015°45'713.8
2018-May-12 21:58N 35°59' E 015°37'714.3
2018-May-12 21:30N 36°01' E 015°29'1414.5
2018-May-12 20:33N 36°05' E 015°13'314.3
2018-May-12 20:19N 36°06' E 015°08'414.1
2018-May-12 20:00N 36°07' E 015°03'714.0
2018-May-12 19:30N 36°09' E 014°55'714.0
2018-May-12 19:00N 36°11' E 014°47'714.0
2018-May-12 18:30N 36°13' E 014°38'714.1
2018-May-12 18:00N 36°15' E 014°30'714.2
2018-May-12 17:30N 36°17' E 014°21'714.2
2018-May-12 16:59N 36°19' E 014°13'714.6
2018-May-12 16:30N 36°22' E 014°05'714.8
2018-May-12 16:00N 36°24' E 013°56'714.7
2018-May-12 15:30N 36°27' E 013°48'814.5
2018-May-12 14:56N 36°30' E 013°38'614.3
2018-May-12 14:30N 36°32' E 013°31'714.2
2018-May-12 14:00N 36°35' E 013°23'714.1
2018-May-12 13:29N 36°38' E 013°15'2713.9
2018-May-12 11:33N 36°51' E 012°45'114.7
2018-May-12 11:29N 36°51' E 012°44'814.7
2018-May-12 10:57N 36°52' E 012°34'15614.2
2018-May-11 23:59N 37°39' E 009°27'1314.1
2018-May-11 23:03N 37°41' E 009°11'114.2
2018-May-11 23:00N 37°41' E 009°10'4514.5
2018-May-11 19:54N 37°40' E 008°14'44313.9
2018-May-10 12:00N 36°30' W 000°54'17614.6 010 / 191014.7 5.4 22.211.6
2018-May-10 00:00N 36°06' W 004°30'3515.0 290 / 221013.4 5.4 16.913.2
2018-May-09 21:39N 36°00' W 005°13'317.5
2018-May-09 21:30N 35°60' W 005°16'917.4
2018-May-09 21:00N 35°57' W 005°26'  

Dump ship's entire track history